createdAt,value
2019-05-20T00:01:41.411Z,100143.05
2019-05-20T00:04:09.716Z,100143.39
2019-05-20T00:06:37.997Z,100139.44
2019-05-20T00:09:06.473Z,100132.41
2019-05-20T00:11:34.972Z,100131.00
2019-05-20T00:14:03.256Z,100128.59
2019-05-20T00:16:31.541Z,100126.23
2019-05-20T00:18:59.870Z,100128.48
2019-05-20T00:21:28.180Z,100128.17
2019-05-20T00:23:56.465Z,100130.33
2019-05-20T00:26:25.793Z,100121.67
2019-05-20T00:28:54.088Z,100118.06
2019-05-20T00:31:22.450Z,100112.34
2019-05-20T00:33:50.749Z,100116.42
2019-05-20T00:36:19.056Z,100107.16
2019-05-20T00:38:49.017Z,100115.28
2019-05-20T00:41:17.333Z,100114.23
2019-05-20T00:43:45.630Z,100119.69
2019-05-20T00:46:13.913Z,100121.00
2019-05-20T00:48:42.209Z,100116.47
2019-05-20T00:51:10.504Z,100114.59
2019-05-20T00:53:39.649Z,100107.42
2019-05-20T00:56:07.946Z,100105.16
2019-05-20T00:58:36.294Z,100095.62
2019-05-20T01:01:04.853Z,100104.95
2019-05-20T01:03:33.132Z,100100.14
2019-05-20T01:06:01.419Z,100104.21
2019-05-20T01:08:29.724Z,100100.38
2019-05-20T01:10:58.013Z,100102.53
2019-05-20T01:13:26.341Z,100099.55
2019-05-20T01:15:54.648Z,100102.55
2019-05-20T01:18:22.917Z,100093.63
2019-05-20T01:20:52.979Z,100107.68
2019-05-20T01:23:21.253Z,100111.70
2019-05-20T01:25:49.557Z,100101.17
2019-05-20T01:28:17.865Z,100103.22
2019-05-20T01:30:46.152Z,100104.44
2019-05-20T01:33:14.650Z,100102.75
2019-05-20T01:35:42.922Z,100106.05
2019-05-20T01:38:11.212Z,100106.41
2019-05-20T01:40:39.504Z,100119.20
2019-05-20T01:43:07.790Z,100113.25
2019-05-20T01:45:36.080Z,100119.43
2019-05-20T01:48:04.402Z,100121.77
2019-05-20T01:50:32.735Z,100118.63
2019-05-20T01:53:01.041Z,100117.47
2019-05-20T01:55:29.350Z,100121.82
2019-05-20T01:57:57.668Z,100123.56
2019-05-20T02:00:26.023Z,100119.78
2019-05-20T02:02:54.315Z,100123.20
2019-05-20T02:05:22.609Z,100123.61
2019-05-20T02:07:50.901Z,100127.80
2019-05-20T02:10:19.347Z,100120.09
2019-05-20T02:12:47.653Z,100125.18
2019-05-20T02:15:29.380Z,100118.63
2019-05-20T02:17:57.695Z,100119.09
2019-05-20T02:20:25.977Z,100125.03
2019-05-20T02:22:55.899Z,100125.65
2019-05-20T02:25:24.186Z,100124.72
2019-05-20T02:27:52.527Z,100127.54
2019-05-20T02:30:20.810Z,100125.65
2019-05-20T02:32:49.088Z,100123.86
2019-05-20T02:35:17.381Z,100128.37
2019-05-20T02:37:45.664Z,100117.31
2019-05-20T02:40:14.227Z,100110.14
2019-05-20T02:42:42.518Z,100122.41
2019-05-20T02:45:10.882Z,100122.41
2019-05-20T02:47:39.185Z,100127.66
2019-05-20T02:50:07.731Z,100118.98
2019-05-20T02:52:36.018Z,100115.59
2019-05-20T02:55:06.138Z,100113.03
2019-05-20T02:57:34.424Z,100114.23
2019-05-20T03:00:03.145Z,100116.17
2019-05-20T03:02:31.475Z,100112.55
2019-05-20T03:04:59.739Z,100112.30
2019-05-20T03:07:28.105Z,100116.70
2019-05-20T03:09:56.419Z,100114.23
2019-05-20T03:12:24.703Z,100110.52
2019-05-20T03:14:52.999Z,100113.59
2019-05-20T03:17:21.293Z,100119.37
2019-05-20T03:19:49.586Z,100109.41
2019-05-20T03:22:17.892Z,100115.18
2019-05-20T03:24:46.197Z,100118.90
2019-05-20T03:27:14.480Z,100113.91
2019-05-20T03:29:42.772Z,100106.41
2019-05-20T03:32:11.229Z,100101.80
2019-05-20T03:34:47.725Z,100104.05
2019-05-20T03:37:09.548Z,100103.28
2019-05-20T03:39:37.856Z,100107.58
2019-05-20T03:42:06.134Z,100109.19
2019-05-20T03:44:34.450Z,100107.88
2019-05-20T03:47:02.764Z,100098.92
2019-05-20T03:49:31.064Z,100112.91
2019-05-20T03:51:59.360Z,100111.19
2019-05-20T03:54:27.654Z,100103.37
2019-05-20T03:56:55.963Z,100105.47
2019-05-20T03:59:24.256Z,100112.56
2019-05-20T04:02:25.685Z,100113.50
2019-05-20T04:05:02.517Z,100107.36
2019-05-20T04:07:23.995Z,100104.78
2019-05-20T04:09:52.316Z,100103.00
2019-05-20T04:12:20.629Z,100104.84
2019-05-20T04:14:48.925Z,100108.84
2019-05-20T04:17:17.218Z,100098.81
2019-05-20T04:19:45.534Z,100096.52
2019-05-20T04:22:17.026Z,100092.73
2019-05-20T04:24:45.316Z,100101.91
2019-05-20T04:27:13.592Z,100089.08
2019-05-20T04:29:41.886Z,100092.05
2019-05-20T04:32:10.748Z,100096.94
2019-05-20T04:34:39.051Z,100093.47
2019-05-20T04:37:07.320Z,100083.93
2019-05-20T04:39:35.621Z,100081.58
2019-05-20T04:42:07.239Z,100080.95
2019-05-20T04:44:35.646Z,100090.74
2019-05-20T04:47:03.910Z,100092.06
2019-05-20T04:49:32.217Z,100092.43
2019-05-20T04:52:00.524Z,100087.51
2019-05-20T04:54:28.810Z,100096.88
2019-05-20T04:56:57.098Z,100094.73
2019-05-20T04:59:25.394Z,100092.06
2019-05-20T05:01:53.695Z,100101.81
2019-05-20T05:04:21.985Z,100094.30
2019-05-20T05:06:50.259Z,100090.86
2019-05-20T05:09:18.635Z,100084.56
2019-05-20T05:11:46.885Z,100088.34
2019-05-20T05:14:16.999Z,100096.20
2019-05-20T05:16:46.947Z,100091.58
2019-05-20T05:19:15.910Z,100099.91
2019-05-20T05:21:44.248Z,100110.45
2019-05-20T05:24:12.622Z,100112.86
2019-05-20T05:26:42.038Z,100113.24
2019-05-20T05:29:11.605Z,100111.97
2019-05-20T05:31:39.939Z,100109.09
2019-05-20T05:34:08.988Z,100112.34
2019-05-20T05:36:37.298Z,100111.23
2019-05-20T05:39:06.831Z,100121.47
2019-05-20T05:41:35.169Z,100118.16
2019-05-20T05:44:03.509Z,100111.81
2019-05-20T05:46:31.863Z,100116.43
2019-05-20T05:49:00.290Z,100116.22
2019-05-20T05:51:28.635Z,100114.17
2019-05-20T05:53:56.918Z,100108.67
2019-05-20T05:56:25.567Z,100105.98
2019-05-20T05:58:54.417Z,100112.55
2019-05-20T06:01:22.789Z,100109.61
2019-05-20T06:03:52.706Z,100112.86
2019-05-20T06:06:21.090Z,100121.20
2019-05-20T06:08:49.424Z,100126.34
2019-05-20T06:11:17.794Z,100123.34
2019-05-20T06:13:46.919Z,100120.73
2019-05-20T06:16:15.625Z,100130.78
2019-05-20T06:18:43.941Z,100128.07
2019-05-20T06:21:12.266Z,100135.46
2019-05-20T06:23:42.978Z,100133.14
2019-05-20T06:26:11.391Z,100138.08
2019-05-20T06:28:39.826Z,100136.04
2019-05-20T06:31:08.425Z,100137.92
2019-05-20T06:33:36.836Z,100132.69
2019-05-20T06:36:05.215Z,100139.59
2019-05-20T06:38:35.219Z,100130.48
2019-05-20T06:41:04.966Z,100132.58
2019-05-20T06:43:33.373Z,100134.26
2019-05-20T06:46:02.103Z,100135.40
2019-05-20T06:48:30.439Z,100136.06
2019-05-20T06:50:58.777Z,100137.53
2019-05-20T06:53:28.216Z,100135.13
2019-05-20T06:55:56.455Z,100133.12
2019-05-20T06:58:24.831Z,100135.16
2019-05-20T07:00:53.172Z,100127.91
2019-05-20T07:03:21.568Z,100124.16
2019-05-20T07:05:49.864Z,100128.78
2019-05-20T07:08:18.239Z,100131.08
2019-05-20T07:10:48.849Z,100137.08
2019-05-20T07:13:17.196Z,100137.08
2019-05-20T07:15:45.579Z,100143.42
2019-05-20T07:18:13.925Z,100153.80
2019-05-20T07:20:42.339Z,100153.58
2019-05-20T07:23:11.519Z,100159.17
2019-05-20T07:25:39.889Z,100156.74
2019-05-20T07:28:08.203Z,100155.18
2019-05-20T07:30:37.895Z,100155.82
2019-05-20T07:33:06.200Z,100155.11
2019-05-20T07:35:34.694Z,100156.42
2019-05-20T07:38:03.053Z,100156.81
2019-05-20T07:40:32.375Z,100155.05
2019-05-20T07:43:02.146Z,100149.22
2019-05-20T07:45:34.324Z,100150.03
2019-05-20T07:48:03.235Z,100151.61
2019-05-20T07:50:31.750Z,100153.30
2019-05-20T07:53:00.705Z,100159.13
2019-05-20T07:55:30.885Z,100153.63
2019-05-20T07:58:04.605Z,100162.84
2019-05-20T08:00:32.966Z,100162.72
2019-05-20T08:03:01.283Z,100161.78
2019-05-20T08:05:31.198Z,100170.73
2019-05-20T08:07:59.724Z,100170.73
2019-05-20T08:10:28.073Z,100172.41
2019-05-20T08:12:56.466Z,100162.73
2019-05-20T08:15:24.779Z,100161.42
2019-05-20T08:17:53.858Z,100165.11
2019-05-20T08:20:22.628Z,100165.72
2019-05-20T08:22:50.993Z,100160.70
2019-05-20T08:25:20.208Z,100163.69
2019-05-20T08:27:50.998Z,100165.34
2019-05-20T08:30:23.753Z,100165.11
2019-05-20T08:32:52.104Z,100162.84
2019-05-20T08:35:23.664Z,100169.30
2019-05-20T08:37:50.991Z,100173.10
2019-05-20T08:40:19.337Z,100175.97
2019-05-20T08:42:47.641Z,100176.84
2019-05-20T08:45:16.087Z,100176.00
2019-05-20T08:47:44.415Z,100175.02
2019-05-20T08:50:16.231Z,100177.30
2019-05-20T08:52:43.184Z,100177.45
2019-05-20T08:55:13.777Z,100174.30
2019-05-20T08:57:43.775Z,100174.30
2019-05-20T09:00:23.577Z,100178.58
2019-05-20T09:02:51.372Z,100177.97
2019-05-20T09:05:19.685Z,100180.61
2019-05-20T09:08:01.436Z,100177.49
2019-05-20T09:10:21.778Z,100184.14
2019-05-20T09:12:51.403Z,100182.16
2019-05-20T09:15:20.716Z,100174.45
2019-05-20T09:17:49.113Z,100186.77
2019-05-20T09:20:20.205Z,100182.59
2019-05-20T09:22:48.564Z,100186.52
2019-05-20T09:25:18.694Z,100190.12
2019-05-20T09:27:47.737Z,100190.72
2019-05-20T09:30:16.192Z,100188.74
2019-05-20T09:32:44.555Z,100190.05
2019-05-20T09:35:13.398Z,100191.01
2019-05-20T09:37:41.743Z,100197.55
2019-05-20T09:40:10.756Z,100196.47
2019-05-20T09:42:41.041Z,100199.94
2019-05-20T09:45:09.710Z,100203.52
2019-05-20T09:47:38.418Z,100205.80
2019-05-20T09:50:08.671Z,100205.00
2019-05-20T09:52:37.877Z,100205.33
2019-05-20T09:55:09.001Z,100206.52
2019-05-20T09:57:38.102Z,100196.98
2019-05-20T10:00:13.793Z,100203.52
2019-05-20T10:02:43.132Z,100203.64
2019-05-20T10:05:11.648Z,100200.53
2019-05-20T10:07:39.991Z,100205.86
2019-05-20T10:10:08.787Z,100205.50
2019-05-20T10:12:46.188Z,100208.95
2019-05-20T10:15:09.215Z,100207.03
2019-05-20T10:17:37.495Z,100200.45
2019-05-20T10:20:08.018Z,100199.33
2019-05-20T10:22:38.924Z,100207.59
2019-05-20T10:25:11.145Z,100201.37
2019-05-20T10:27:41.779Z,100206.87
2019-05-20T10:30:15.118Z,100205.50
2019-05-20T10:32:43.541Z,100210.52
2019-05-20T10:35:15.448Z,100208.02
2019-05-20T10:37:43.852Z,100209.91
2019-05-20T10:40:12.386Z,100209.98
2019-05-20T10:42:43.185Z,100212.18
2019-05-20T10:45:11.782Z,100211.30
2019-05-20T10:47:41.379Z,100205.28
2019-05-20T10:50:09.892Z,100211.30
2019-05-20T10:52:38.191Z,100213.09
2019-05-20T10:55:07.992Z,100214.09
2019-05-20T10:57:37.379Z,100221.19
2019-05-20T11:00:07.285Z,100217.81
2019-05-20T11:02:35.577Z,100221.39
2019-05-20T11:05:07.177Z,100219.55
2019-05-20T11:07:39.627Z,100214.29
2019-05-20T11:10:11.593Z,100212.30
2019-05-20T11:12:39.873Z,100204.71
2019-05-20T11:15:09.139Z,100208.88
2019-05-20T11:17:38.617Z,100207.42
2019-05-20T11:20:10.442Z,100193.32
2019-05-20T11:22:38.713Z,100202.24
2019-05-20T11:25:09.608Z,100203.22
2019-05-20T11:27:37.881Z,100196.92
2019-05-20T11:30:09.980Z,100210.88
2019-05-20T11:32:39.581Z,100217.55
2019-05-20T11:35:09.402Z,100216.20
2019-05-20T11:37:37.690Z,100207.95
2019-05-20T11:40:09.635Z,100207.36
2019-05-20T11:42:40.051Z,100206.70
2019-05-20T11:45:09.355Z,100211.78
2019-05-20T11:47:37.638Z,100214.55
2019-05-20T11:50:09.281Z,100216.25
2019-05-20T11:52:41.203Z,100218.15
2019-05-20T11:55:13.114Z,100219.69
2019-05-20T11:57:41.385Z,100212.96
2019-05-20T12:00:14.656Z,100214.25
2019-05-20T12:02:44.338Z,100210.67
2019-05-20T12:05:14.647Z,100201.69
2019-05-20T12:07:45.972Z,100201.81
2019-05-20T12:10:15.780Z,100199.09
2019-05-20T12:12:46.276Z,100208.72
2019-05-20T12:15:15.409Z,100211.17
2019-05-20T12:17:44.364Z,100221.65
2019-05-20T12:20:12.963Z,100214.97
2019-05-20T12:22:52.809Z,100221.24
2019-05-20T12:25:21.087Z,100217.00
2019-05-20T12:27:49.425Z,100223.75
2019-05-20T12:30:17.707Z,100217.30
2019-05-20T12:32:46.228Z,100222.02
2019-05-20T12:35:14.708Z,100222.23
2019-05-20T12:37:45.690Z,100218.33
2019-05-20T12:40:13.286Z,100216.31
2019-05-20T12:42:44.324Z,100208.80
2019-05-20T12:45:15.417Z,100204.16
2019-05-20T12:47:43.716Z,100210.41
2019-05-20T12:50:14.778Z,100207.28
2019-05-20T12:52:46.176Z,100203.14
2019-05-20T12:55:14.546Z,100198.38
2019-05-20T12:57:45.303Z,100204.40
2019-05-20T13:00:17.122Z,100206.70
2019-05-20T13:02:45.541Z,100208.64
2019-05-20T13:05:14.603Z,100207.56
2019-05-20T13:07:43.541Z,100203.73
2019-05-20T13:10:29.240Z,100203.00
2019-05-20T13:12:44.264Z,100192.52
2019-05-20T13:15:14.336Z,100186.92
2019-05-20T13:17:45.416Z,100186.92
2019-05-20T13:20:19.103Z,100186.29
2019-05-20T13:22:47.314Z,100188.11
2019-05-20T13:25:15.673Z,100180.84
2019-05-20T13:27:45.620Z,100183.19
2019-05-20T13:30:14.284Z,100173.34
2019-05-20T13:32:42.786Z,100174.83
2019-05-20T13:35:11.383Z,100178.45
2019-05-20T13:37:40.926Z,100170.30
2019-05-20T13:40:12.131Z,100164.52
2019-05-20T13:42:40.451Z,100169.16
2019-05-20T13:45:11.335Z,100164.73
2019-05-20T13:47:39.623Z,100164.88
2019-05-20T13:50:08.985Z,100163.27
2019-05-20T13:52:39.186Z,100161.48
2019-05-20T13:55:10.005Z,100161.73
2019-05-20T13:57:40.629Z,100155.69
2019-05-20T14:00:09.577Z,100150.97
2019-05-20T14:02:38.044Z,100154.58
2019-05-20T14:05:06.561Z,100145.56
2019-05-20T14:07:38.219Z,100139.73
2019-05-20T14:10:08.304Z,100137.33
2019-05-20T14:12:36.583Z,100134.06
2019-05-20T14:15:06.275Z,100130.98
2019-05-20T14:17:37.211Z,100132.85
2019-05-20T14:20:06.743Z,100129.75
2019-05-20T14:22:36.648Z,100123.02
2019-05-20T14:25:06.620Z,100120.31
2019-05-20T14:27:34.890Z,100113.17
2019-05-20T14:30:05.183Z,100113.65
2019-05-20T14:32:33.541Z,100108.59
2019-05-20T14:35:14.131Z,100110.41
2019-05-20T14:37:42.424Z,100113.70
2019-05-20T14:40:10.859Z,100103.69
2019-05-20T14:42:39.617Z,100093.70
2019-05-20T14:45:08.076Z,100095.73
2019-05-20T14:47:38.845Z,100097.14
2019-05-20T14:50:07.962Z,100107.72
2019-05-20T14:52:40.010Z,100104.64
2019-05-20T14:55:08.571Z,100111.98
2019-05-20T14:57:36.936Z,100112.81
2019-05-20T15:00:12.984Z,100108.16
2019-05-20T15:02:41.278Z,100113.45
2019-05-20T15:05:15.062Z,100113.57
2019-05-20T15:07:43.796Z,100118.50
2019-05-20T15:10:15.531Z,100121.90
2019-05-20T15:12:44.643Z,100121.94
2019-05-20T15:15:14.900Z,100121.30
2019-05-20T15:17:47.459Z,100119.98
2019-05-20T15:20:16.906Z,100118.57
2019-05-20T15:22:46.134Z,100109.56
2019-05-20T15:25:15.825Z,100100.66
2019-05-20T15:27:45.955Z,100091.84
2019-05-20T15:30:14.613Z,100104.77
2019-05-20T15:32:42.957Z,100103.04
2019-05-20T15:35:12.767Z,100099.86
2019-05-20T15:37:41.073Z,100098.93
2019-05-20T15:40:11.112Z,100097.14
2019-05-20T15:42:39.435Z,100090.34
2019-05-20T15:45:11.910Z,100084.56
2019-05-20T15:47:42.144Z,100091.93
2019-05-20T15:50:12.357Z,100082.72
2019-05-20T15:52:40.668Z,100075.09
2019-05-20T15:55:09.294Z,100071.37
2019-05-20T15:57:38.126Z,100063.89
2019-05-20T16:00:08.360Z,100064.78
2019-05-20T16:02:39.933Z,100063.63
2019-05-20T16:05:08.512Z,100066.12
2019-05-20T16:07:36.879Z,100066.78
2019-05-20T16:10:09.339Z,100076.56
2019-05-20T16:12:39.269Z,100075.08
2019-05-20T16:15:10.298Z,100078.21
2019-05-20T16:17:47.995Z,100086.51
2019-05-20T16:20:15.928Z,100085.03
2019-05-20T16:22:44.395Z,100082.89
2019-05-20T16:25:17.495Z,100080.38
2019-05-20T16:27:45.813Z,100090.00
2019-05-20T16:30:14.748Z,100083.50
2019-05-20T16:32:43.619Z,100074.92
2019-05-20T16:35:11.935Z,100076.55
2019-05-20T16:37:42.706Z,100074.09
2019-05-20T16:40:11.508Z,100089.01
2019-05-20T16:42:43.269Z,100076.39
2019-05-20T16:45:12.434Z,100073.59
2019-05-20T16:47:40.934Z,100076.53
2019-05-20T16:50:10.402Z,100075.48
2019-05-20T16:52:38.763Z,100071.52
2019-05-20T16:55:08.043Z,100072.31
2019-05-20T16:57:37.931Z,100062.05
2019-05-20T17:00:27.401Z,100064.55
2019-05-20T17:02:37.877Z,100063.75
2019-05-20T17:05:06.726Z,100067.20
2019-05-20T17:07:35.011Z,100073.02
2019-05-20T17:10:05.168Z,100075.98
2019-05-20T17:12:33.471Z,100077.55
2019-05-20T17:15:02.264Z,100075.67
2019-05-20T17:17:30.554Z,100075.00
2019-05-20T17:20:01.779Z,100077.52
2019-05-20T17:22:31.043Z,100079.66
2019-05-20T17:25:02.004Z,100082.98
2019-05-20T17:27:31.604Z,100091.46
2019-05-20T17:30:03.575Z,100093.77
2019-05-20T17:32:32.333Z,100091.60
2019-05-20T17:35:00.731Z,100094.53
2019-05-20T17:37:29.130Z,100097.52
2019-05-20T17:39:57.434Z,100099.52
2019-05-20T17:42:25.811Z,100099.38
2019-05-20T17:44:54.582Z,100088.91
2019-05-20T17:47:22.866Z,100087.73
2019-05-20T17:49:51.149Z,100091.18
2019-05-20T17:52:20.376Z,100093.02
2019-05-20T17:54:48.733Z,100082.38
2019-05-20T17:57:18.699Z,100090.10
2019-05-20T17:59:46.991Z,100082.59
2019-05-20T18:02:15.316Z,100091.36
2019-05-20T18:04:43.910Z,100092.80
2019-05-20T18:07:12.229Z,100100.80
2019-05-20T18:09:42.167Z,100102.57
2019-05-20T18:12:10.530Z,100098.75
2019-05-20T18:14:38.989Z,100092.95
2019-05-20T18:17:07.291Z,100095.47
2019-05-20T18:19:37.276Z,100087.87
2019-05-20T18:22:05.580Z,100095.91
2019-05-20T18:24:33.956Z,100099.40
2019-05-20T18:27:02.283Z,100102.81
2019-05-20T18:29:34.035Z,100110.20
2019-05-20T18:32:02.398Z,100113.50
2019-05-20T18:34:30.721Z,100119.21
2019-05-20T18:36:59.003Z,100123.83
2019-05-20T18:39:27.274Z,100123.73
2019-05-20T18:41:56.295Z,100123.31
2019-05-20T18:44:25.656Z,100128.75
2019-05-20T18:46:53.998Z,100126.20
2019-05-20T18:49:22.334Z,100133.03
2019-05-20T18:51:50.655Z,100133.50
2019-05-20T18:54:23.328Z,100131.70
2019-05-20T18:56:53.686Z,100130.53
2019-05-20T18:59:21.998Z,100136.44
2019-05-20T19:02:04.682Z,100130.61
2019-05-20T19:04:21.038Z,100133.47
2019-05-20T19:06:49.421Z,100133.81
2019-05-20T19:09:18.166Z,100127.66
2019-05-20T19:11:48.123Z,100123.16
2019-05-20T19:14:16.419Z,100125.45
2019-05-20T19:16:44.804Z,100123.10
2019-05-20T19:19:13.202Z,100119.49
2019-05-20T19:21:41.507Z,100118.46
2019-05-20T19:24:09.862Z,100126.89
2019-05-20T19:26:38.208Z,100119.80
2019-05-20T19:29:06.552Z,100117.87
2019-05-20T19:31:36.028Z,100120.67
2019-05-20T19:34:05.396Z,100112.19
2019-05-20T19:36:33.757Z,100108.52
2019-05-20T19:39:02.820Z,100104.75
2019-05-20T19:41:31.128Z,100102.17
2019-05-20T19:43:59.459Z,100092.03
2019-05-20T19:46:27.819Z,100094.70
2019-05-20T19:48:56.143Z,100098.77
2019-05-20T19:51:25.724Z,100095.58
2019-05-20T19:53:56.618Z,100090.74
2019-05-20T19:56:24.909Z,100094.46
2019-05-20T19:58:53.244Z,100091.65
2019-05-20T20:01:21.706Z,100095.43
2019-05-20T20:03:52.983Z,100098.91
2019-05-20T20:06:25.901Z,100101.13
2019-05-20T20:08:54.233Z,100091.00
2019-05-20T20:11:22.508Z,100102.19
2019-05-20T20:13:50.797Z,100101.77
2019-05-20T20:16:19.097Z,100097.80
2019-05-20T20:18:47.387Z,100093.42
2019-05-20T20:21:16.412Z,100084.94
2019-05-20T20:23:44.707Z,100082.92
2019-05-20T20:26:13.007Z,100078.08
2019-05-20T20:28:41.318Z,100076.55
2019-05-20T20:31:11.066Z,100082.69
2019-05-20T20:33:39.866Z,100083.67
2019-05-20T20:36:08.162Z,100082.97
2019-05-20T20:38:36.448Z,100083.67
2019-05-20T20:41:04.748Z,100079.84
2019-05-20T20:43:33.037Z,100079.92
2019-05-20T20:46:01.428Z,100074.64
2019-05-20T20:48:29.698Z,100085.87
2019-05-20T20:50:57.982Z,100083.39
2019-05-20T20:53:26.276Z,100085.33
2019-05-20T20:55:54.552Z,100086.08
2019-05-20T20:58:22.850Z,100089.48
2019-05-20T21:00:51.158Z,100089.48
2019-05-20T21:03:19.454Z,100097.95
2019-05-20T21:05:47.761Z,100098.02
2019-05-20T21:08:16.058Z,100102.89
2019-05-20T21:10:44.338Z,100098.29
2019-05-20T21:13:12.628Z,100101.98
2019-05-20T21:15:40.901Z,100105.10
2019-05-20T21:18:09.205Z,100102.41
2019-05-20T21:20:37.499Z,100105.71
2019-05-20T21:23:05.805Z,100104.48
2019-05-20T21:25:34.080Z,100103.98
2019-05-20T21:28:02.378Z,100095.58
2019-05-20T21:30:30.657Z,100094.12
2019-05-20T21:33:08.720Z,100091.89
2019-05-20T21:35:28.969Z,100088.91
2019-05-20T21:37:57.250Z,100097.05
2019-05-20T21:40:25.537Z,100092.23
2019-05-20T21:42:53.817Z,100088.00
2019-05-20T21:45:22.138Z,100085.63
2019-05-20T21:47:50.400Z,100096.12
2019-05-20T21:50:18.709Z,100093.30
2019-05-20T21:52:46.992Z,100087.72
2019-05-20T21:55:15.278Z,100083.84
2019-05-20T21:57:43.552Z,100079.75
2019-05-20T22:00:13.553Z,100078.08
2019-05-20T22:02:41.830Z,100062.98
2019-05-20T22:05:10.461Z,100057.42
2019-05-20T22:07:38.799Z,100054.52
2019-05-20T22:10:07.484Z,100052.91
2019-05-20T22:12:35.783Z,100056.11
2019-05-20T22:15:06.191Z,100044.58
2019-05-20T22:17:34.478Z,100046.30
2019-05-20T22:20:02.833Z,100042.55
2019-05-20T22:22:32.753Z,100042.79
2019-05-20T22:25:01.145Z,100042.34
2019-05-20T22:27:29.381Z,100042.65
2019-05-20T22:29:57.675Z,100043.69
2019-05-20T22:32:25.982Z,100038.36
2019-05-20T22:34:54.252Z,100037.20
2019-05-20T22:37:22.572Z,100036.63
2019-05-20T22:39:50.849Z,100040.70
2019-05-20T22:42:19.152Z,100025.61
2019-05-20T22:44:47.428Z,100027.53
2019-05-20T22:47:15.732Z,100030.97
2019-05-20T22:49:44.035Z,100025.10
2019-05-20T22:52:12.312Z,100027.09
2019-05-20T22:54:40.619Z,100016.25
2019-05-20T22:57:08.938Z,100024.28
2019-05-20T22:59:37.203Z,100025.74
2019-05-20T23:02:05.497Z,100034.03
2019-05-20T23:04:33.776Z,100036.05
2019-05-20T23:07:02.068Z,100037.37
2019-05-20T23:09:30.335Z,100037.23
2019-05-20T23:12:01.346Z,100036.72
2019-05-20T23:14:29.635Z,100039.84
2019-05-20T23:16:57.937Z,100037.00
2019-05-20T23:19:26.211Z,100035.27
2019-05-20T23:21:54.510Z,100019.63
2019-05-20T23:24:22.816Z,100030.89
2019-05-20T23:26:51.161Z,100028.88
2019-05-20T23:29:19.469Z,100024.14
2019-05-20T23:31:47.748Z,100030.75
2019-05-20T23:34:16.116Z,100029.77
2019-05-20T23:36:44.407Z,100014.97
2019-05-20T23:39:12.724Z,100020.11
2019-05-20T23:41:40.997Z,100024.91
2019-05-20T23:44:09.284Z,100027.13
2019-05-20T23:46:37.655Z,100030.91
2019-05-20T23:49:05.928Z,100026.98
2019-05-20T23:51:34.225Z,100022.27
2019-05-20T23:54:02.487Z,100025.49
2019-05-20T23:56:30.799Z,100022.89
2019-05-20T23:58:59.072Z,100018.06
